sensor_id;sensor_type;location;lat;lon;timestamp;P1;durP1;ratioP1;P2;durP2;ratioP2
49784;SDS011;35679;38.732;-121.358;2022-11-15T00:00:17;3.58;;;3.28;;
49784;SDS011;35679;38.732;-121.358;2022-11-15T00:03:26;3.25;;;3.05;;
49784;SDS011;35679;38.732;-121.358;2022-11-15T00:06:36;3.00;;;2.80;;
49784;SDS011;35679;38.732;-121.358;2022-11-15T00:09:45;3.50;;;3.22;;
49784;SDS011;35679;38.732;-121.358;2022-11-15T00:12:54;3.50;;;3.20;;
49784;SDS011;35679;38.732;-121.358;2022-11-15T00:16:02;3.72;;;3.42;;
49784;SDS011;35679;38.732;-121.358;2022-11-15T00:19:11;3.30;;;3.10;;
49784;SDS011;35679;38.732;-121.358;2022-11-15T00:22:19;3.30;;;3.10;;
49784;SDS011;35679;38.732;-121.358;2022-11-15T00:25:29;3.80;;;3.50;;
49784;SDS011;35679;38.732;-121.358;2022-11-15T00:28:38;3.55;;;3.25;;
49784;SDS011;35679;38.732;-121.358;2022-11-15T00:31:48;3.20;;;3.00;;
49784;SDS011;35679;38.732;-121.358;2022-11-15T00:34:58;3.25;;;3.03;;
49784;SDS011;35679;38.732;-121.358;2022-11-15T00:38:06;3.50;;;3.30;;
49784;SDS011;35679;38.732;-121.358;2022-11-15T00:41:15;3.35;;;3.15;;
49784;SDS011;35679;38.732;-121.358;2022-11-15T00:44:23;3.35;;;3.08;;
49784;SDS011;35679;38.732;-121.358;2022-11-15T00:47:32;3.50;;;3.30;;
49784;SDS011;35679;38.732;-121.358;2022-11-15T00:50:40;3.42;;;3.15;;
49784;SDS011;35679;38.732;-121.358;2022-11-15T00:53:48;3.53;;;3.30;;
49784;SDS011;35679;38.732;-121.358;2022-11-15T00:56:57;3.78;;;3.47;;
49784;SDS011;35679;38.732;-121.358;2022-11-15T01:00:06;4.20;;;3.45;;
49784;SDS011;35679;38.732;-121.358;2022-11-15T01:03:16;3.38;;;3.08;;
49784;SDS011;35679;38.732;-121.358;2022-11-15T01:06:25;3.47;;;3.28;;
49784;SDS011;35679;38.732;-121.358;2022-11-15T01:09:34;3.20;;;3.00;;
49784;SDS011;35679;38.732;-121.358;2022-11-15T01:12:42;3.40;;;3.20;;
49784;SDS011;35679;38.732;-121.358;2022-11-15T01:15:51;3.53;;;3.33;;
49784;SDS011;35679;38.732;-121.358;2022-11-15T01:19:00;3.28;;;3.05;;
49784;SDS011;35679;38.732;-121.358;2022-11-15T01:22:09;3.53;;;3.30;;
49784;SDS011;35679;38.732;-121.358;2022-11-15T01:25:17;3.60;;;3.30;;
49784;SDS011;35679;38.732;-121.358;2022-11-15T01:28:25;3.58;;;3.38;;
49784;SDS011;35679;38.732;-121.358;2022-11-15T01:31:36;3.60;;;3.30;;
49784;SDS011;35679;38.732;-121.358;2022-11-15T01:34:45;3.63;;;3.20;;
49784;SDS011;35679;38.732;-121.358;2022-11-15T01:37:54;3.50;;;3.20;;
49784;SDS011;35679;38.732;-121.358;2022-11-15T01:41:02;3.50;;;3.20;;
49784;SDS011;35679;38.732;-121.358;2022-11-15T01:47:39;3.17;;;2.97;;
49784;SDS011;35679;38.732;-121.358;2022-11-15T01:50:52;3.75;;;3.45;;
49784;SDS011;35679;38.732;-121.358;2022-11-15T01:54:02;3.75;;;3.45;;
49784;SDS011;35679;38.732;-121.358;2022-11-15T01:57:16;3.53;;;3.33;;
49784;SDS011;35679;38.732;-121.358;2022-11-15T02:00:24;3.38;;;3.17;;
49784;SDS011;35679;38.732;-121.358;2022-11-15T02:03:44;3.33;;;3.13;;
49784;SDS011;35679;38.732;-121.358;2022-11-15T02:07:04;3.30;;;3.10;;
49784;SDS011;35679;38.732;-121.358;2022-11-15T02:10:17;3.60;;;3.30;;
49784;SDS011;35679;38.732;-121.358;2022-11-15T02:13:30;3.53;;;3.33;;
49784;SDS011;35679;38.732;-121.358;2022-11-15T02:24:17;3.38;;;3.17;;
49784;SDS011;35679;38.732;-121.358;2022-11-15T02:28:04;3.33;;;3.03;;
49784;SDS011;35679;38.732;-121.358;2022-11-15T02:31:27;3.70;;;3.42;;
49784;SDS011;35679;38.732;-121.358;2022-11-15T02:34:43;3.67;;;3.47;;
49784;SDS011;35679;38.732;-121.358;2022-11-15T02:37:59;3.60;;;3.30;;
49784;SDS011;35679;38.732;-121.358;2022-11-15T02:41:19;3.97;;;3.63;;
49784;SDS011;35679;38.732;-121.358;2022-11-15T02:44:43;4.05;;;3.75;;
49784;SDS011;35679;38.732;-121.358;2022-11-15T02:47:54;4.07;;;3.78;;
49784;SDS011;35679;38.732;-121.358;2022-11-15T02:51:07;4.05;;;3.70;;
49784;SDS011;35679;38.732;-121.358;2022-11-15T02:54:23;4.10;;;3.70;;
49784;SDS011;35679;38.732;-121.358;2022-11-15T02:57:39;4.40;;;4.00;;
49784;SDS011;35679;38.732;-121.358;2022-11-15T03:05:01;4.25;;;3.80;;
49784;SDS011;35679;38.732;-121.358;2022-11-15T03:11:38;4.75;;;4.07;;
49784;SDS011;35679;38.732;-121.358;2022-11-15T03:14:56;4.22;;;3.90;;
49784;SDS011;35679;38.732;-121.358;2022-11-15T03:21:28;4.13;;;3.83;;
49784;SDS011;35679;38.732;-121.358;2022-11-15T03:24:39;5.10;;;4.30;;
49784;SDS011;35679;38.732;-121.358;2022-11-15T03:27:51;4.75;;;4.25;;
49784;SDS011;35679;38.732;-121.358;2022-11-15T03:31:03;4.30;;;3.90;;
49784;SDS011;35679;38.732;-121.358;2022-11-15T03:34:34;4.97;;;4.47;;
49784;SDS011;35679;38.732;-121.358;2022-11-15T03:37:50;4.80;;;4.40;;
49784;SDS011;35679;38.732;-121.358;2022-11-15T03:41:05;5.15;;;4.65;;
49784;SDS011;35679;38.732;-121.358;2022-11-15T03:47:53;5.95;;;4.72;;
49784;SDS011;35679;38.732;-121.358;2022-11-15T03:51:08;5.30;;;4.47;;
49784;SDS011;35679;38.732;-121.358;2022-11-15T03:54:17;5.18;;;4.70;;
49784;SDS011;35679;38.732;-121.358;2022-11-15T03:57:28;4.95;;;4.45;;
49784;SDS011;35679;38.732;-121.358;2022-11-15T04:00:38;5.20;;;4.13;;
49784;SDS011;35679;38.732;-121.358;2022-11-15T04:03:47;4.40;;;4.00;;
49784;SDS011;35679;38.732;-121.358;2022-11-15T04:06:56;4.63;;;4.22;;
49784;SDS011;35679;38.732;-121.358;2022-11-15T04:10:05;5.00;;;4.50;;
49784;SDS011;35679;38.732;-121.358;2022-11-15T04:13:14;4.65;;;4.25;;
49784;SDS011;35679;38.732;-121.358;2022-11-15T04:16:22;5.03;;;4.28;;
49784;SDS011;35679;38.732;-121.358;2022-11-15T04:19:32;5.32;;;4.40;;
49784;SDS011;35679;38.732;-121.358;2022-11-15T04:23:00;4.75;;;4.00;;
49784;SDS011;35679;38.732;-121.358;2022-11-15T04:26:29;4.82;;;4.40;;
49784;SDS011;35679;38.732;-121.358;2022-11-15T04:29:39;4.53;;;4.13;;
49784;SDS011;35679;38.732;-121.358;2022-11-15T04:32:47;5.00;;;4.55;;
49784;SDS011;35679;38.732;-121.358;2022-11-15T04:35:56;4.80;;;4.40;;
49784;SDS011;35679;38.732;-121.358;2022-11-15T04:39:36;4.70;;;4.30;;
49784;SDS011;35679;38.732;-121.358;2022-11-15T04:42:47;4.60;;;4.20;;
49784;SDS011;35679;38.732;-121.358;2022-11-15T04:45:56;4.80;;;4.40;;
49784;SDS011;35679;38.732;-121.358;2022-11-15T04:49:05;4.35;;;4.05;;
49784;SDS011;35679;38.732;-121.358;2022-11-15T04:52:13;4.75;;;4.20;;
49784;SDS011;35679;38.732;-121.358;2022-11-15T04:55:22;4.80;;;4.38;;
49784;SDS011;35679;38.732;-121.358;2022-11-15T04:58:31;5.35;;;4.60;;
49784;SDS011;35679;38.732;-121.358;2022-11-15T05:01:40;4.80;;;4.38;;
49784;SDS011;35679;38.732;-121.358;2022-11-15T05:04:50;4.97;;;4.20;;
49784;SDS011;35679;38.732;-121.358;2022-11-15T05:07:59;5.18;;;4.78;;
49784;SDS011;35679;38.732;-121.358;2022-11-15T05:11:07;5.13;;;4.47;;
49784;SDS011;35679;38.732;-121.358;2022-11-15T05:14:17;5.05;;;4.60;;
49784;SDS011;35679;38.732;-121.358;2022-11-15T05:17:26;5.95;;;4.45;;
49784;SDS011;35679;38.732;-121.358;2022-11-15T05:20:35;6.97;;;4.80;;
49784;SDS011;35679;38.732;-121.358;2022-11-15T05:23:43;4.88;;;4.43;;
49784;SDS011;35679;38.732;-121.358;2022-11-15T05:26:52;5.82;;;4.65;;
49784;SDS011;35679;38.732;-121.358;2022-11-15T05:30:00;5.53;;;4.70;;
49784;SDS011;35679;38.732;-121.358;2022-11-15T05:33:09;6.45;;;4.85;;
49784;SDS011;35679;38.732;-121.358;2022-11-15T05:39:35;4.90;;;4.40;;
49784;SDS011;35679;38.732;-121.358;2022-11-15T05:42:44;5.10;;;4.60;;
49784;SDS011;35679;38.732;-121.358;2022-11-15T05:45:55;6.35;;;4.97;;
49784;SDS011;35679;38.732;-121.358;2022-11-15T05:49:05;5.22;;;4.72;;
49784;SDS011;35679;38.732;-121.358;2022-11-15T05:52:20;5.63;;;5.13;;
49784;SDS011;35679;38.732;-121.358;2022-11-15T05:55:32;6.10;;;5.15;;
49784;SDS011;35679;38.732;-121.358;2022-11-15T05:58:42;7.00;;;5.07;;
49784;SDS011;35679;38.732;-121.358;2022-11-15T06:01:50;5.45;;;4.72;;
49784;SDS011;35679;38.732;-121.358;2022-11-15T06:05:00;5.65;;;5.07;;
49784;SDS011;35679;38.732;-121.358;2022-11-15T06:08:09;5.90;;;5.07;;
49784;SDS011;35679;38.732;-121.358;2022-11-15T06:11:17;6.40;;;5.40;;
49784;SDS011;35679;38.732;-121.358;2022-11-15T06:14:26;7.57;;;5.43;;
49784;SDS011;35679;38.732;-121.358;2022-11-15T06:17:35;7.18;;;5.32;;
49784;SDS011;35679;38.732;-121.358;2022-11-15T06:20:44;6.07;;;5.25;;
49784;SDS011;35679;38.732;-121.358;2022-11-15T06:23:53;6.47;;;5.22;;
49784;SDS011;35679;38.732;-121.358;2022-11-15T06:27:01;5.72;;;4.95;;
49784;SDS011;35679;38.732;-121.358;2022-11-15T06:30:10;6.25;;;5.65;;
49784;SDS011;35679;38.732;-121.358;2022-11-15T06:33:20;6.35;;;5.72;;
49784;SDS011;35679;38.732;-121.358;2022-11-15T06:36:29;5.53;;;5.03;;
49784;SDS011;35679;38.732;-121.358;2022-11-15T06:39:38;6.45;;;5.57;;
49784;SDS011;35679;38.732;-121.358;2022-11-15T06:42:46;5.25;;;4.75;;
49784;SDS011;35679;38.732;-121.358;2022-11-15T06:45:57;6.07;;;5.53;;
49784;SDS011;35679;38.732;-121.358;2022-11-15T06:49:07;6.13;;;5.53;;
49784;SDS011;35679;38.732;-121.358;2022-11-15T06:52:17;6.65;;;6.03;;
49784;SDS011;35679;38.732;-121.358;2022-11-15T06:55:27;6.35;;;5.50;;
49784;SDS011;35679;38.732;-121.358;2022-11-15T06:58:35;6.05;;;5.45;;
49784;SDS011;35679;38.732;-121.358;2022-11-15T07:01:44;7.00;;;5.35;;
49784;SDS011;35679;38.732;-121.358;2022-11-15T07:04:54;7.40;;;5.53;;
49784;SDS011;35679;38.732;-121.358;2022-11-15T07:08:03;8.27;;;5.93;;
49784;SDS011;35679;38.732;-121.358;2022-11-15T07:11:12;8.57;;;6.32;;
49784;SDS011;35679;38.732;-121.358;2022-11-15T07:14:20;8.20;;;5.70;;
49784;SDS011;35679;38.732;-121.358;2022-11-15T07:17:29;7.05;;;5.75;;
49784;SDS011;35679;38.732;-121.358;2022-11-15T07:20:38;6.25;;;5.53;;
49784;SDS011;35679;38.732;-121.358;2022-11-15T07:23:47;8.38;;;6.07;;
49784;SDS011;35679;38.732;-121.358;2022-11-15T07:26:56;6.38;;;5.78;;
49784;SDS011;35679;38.732;-121.358;2022-11-15T07:30:06;7.68;;;5.75;;
49784;SDS011;35679;38.732;-121.358;2022-11-15T07:33:15;6.10;;;5.50;;
49784;SDS011;35679;38.732;-121.358;2022-11-15T07:36:24;7.78;;;5.95;;
49784;SDS011;35679;38.732;-121.358;2022-11-15T07:39:34;7.55;;;5.53;;
49784;SDS011;35679;38.732;-121.358;2022-11-15T07:42:43;6.90;;;5.63;;
49784;SDS011;35679;38.732;-121.358;2022-11-15T07:46:06;6.32;;;5.68;;
49784;SDS011;35679;38.732;-121.358;2022-11-15T07:49:17;6.00;;;5.43;;
49784;SDS011;35679;38.732;-121.358;2022-11-15T07:52:25;6.82;;;6.13;;
49784;SDS011;35679;38.732;-121.358;2022-11-15T07:55:35;6.82;;;5.68;;
49784;SDS011;35679;38.732;-121.358;2022-11-15T07:58:45;6.18;;;5.57;;
49784;SDS011;35679;38.732;-121.358;2022-11-15T08:01:53;6.85;;;6.05;;
49784;SDS011;35679;38.732;-121.358;2022-11-15T08:05:03;6.82;;;5.97;;
49784;SDS011;35679;38.732;-121.358;2022-11-15T08:08:21;6.57;;;5.80;;
49784;SDS011;35679;38.732;-121.358;2022-11-15T08:11:30;6.32;;;5.72;;
49784;SDS011;35679;38.732;-121.358;2022-11-15T08:14:38;6.47;;;5.85;;
49784;SDS011;35679;38.732;-121.358;2022-11-15T08:18:01;8.25;;;6.20;;
49784;SDS011;35679;38.732;-121.358;2022-11-15T08:21:21;7.10;;;6.07;;
49784;SDS011;35679;38.732;-121.358;2022-11-15T08:24:32;7.20;;;5.78;;
49784;SDS011;35679;38.732;-121.358;2022-11-15T08:27:42;8.00;;;6.22;;
49784;SDS011;35679;38.732;-121.358;2022-11-15T08:30:51;8.52;;;5.95;;
49784;SDS011;35679;38.732;-121.358;2022-11-15T08:34:00;7.00;;;6.18;;
49784;SDS011;35679;38.732;-121.358;2022-11-15T08:37:10;6.72;;;5.93;;
49784;SDS011;35679;38.732;-121.358;2022-11-15T08:40:19;7.10;;;5.88;;
49784;SDS011;35679;38.732;-121.358;2022-11-15T08:43:27;6.93;;;6.22;;
49784;SDS011;35679;38.732;-121.358;2022-11-15T08:46:37;8.48;;;6.63;;
49784;SDS011;35679;38.732;-121.358;2022-11-15T08:49:45;8.82;;;6.18;;
49784;SDS011;35679;38.732;-121.358;2022-11-15T08:52:53;6.10;;;5.47;;
49784;SDS011;35679;38.732;-121.358;2022-11-15T08:56:15;7.80;;;6.05;;
49784;SDS011;35679;38.732;-121.358;2022-11-15T08:59:23;7.85;;;6.05;;
49784;SDS011;35679;38.732;-121.358;2022-11-15T09:02:31;7.88;;;6.38;;
49784;SDS011;35679;38.732;-121.358;2022-11-15T09:05:39;7.82;;;6.53;;
49784;SDS011;35679;38.732;-121.358;2022-11-15T09:08:47;6.90;;;6.20;;
49784;SDS011;35679;38.732;-121.358;2022-11-15T09:11:55;6.72;;;6.10;;
49784;SDS011;35679;38.732;-121.358;2022-11-15T09:15:07;6.60;;;6.00;;
49784;SDS011;35679;38.732;-121.358;2022-11-15T09:18:16;8.07;;;6.25;;
49784;SDS011;35679;38.732;-121.358;2022-11-15T09:21:26;6.82;;;6.13;;
49784;SDS011;35679;38.732;-121.358;2022-11-15T09:24:36;7.05;;;6.35;;
49784;SDS011;35679;38.732;-121.358;2022-11-15T09:27:44;7.32;;;6.15;;
49784;SDS011;35679;38.732;-121.358;2022-11-15T09:30:55;8.13;;;6.38;;
49784;SDS011;35679;38.732;-121.358;2022-11-15T09:34:09;10.25;;;6.38;;
49784;SDS011;35679;38.732;-121.358;2022-11-15T09:37:18;8.45;;;6.63;;
49784;SDS011;35679;38.732;-121.358;2022-11-15T09:40:26;7.63;;;6.38;;
49784;SDS011;35679;38.732;-121.358;2022-11-15T09:47:10;7.72;;;6.07;;
49784;SDS011;35679;38.732;-121.358;2022-11-15T09:50:44;8.52;;;6.22;;
49784;SDS011;35679;38.732;-121.358;2022-11-15T09:57:13;7.13;;;6.28;;
49784;SDS011;35679;38.732;-121.358;2022-11-15T10:00:09;6.93;;;6.20;;
49784;SDS011;35679;38.732;-121.358;2022-11-15T10:03:34;7.95;;;6.30;;
49784;SDS011;35679;38.732;-121.358;2022-11-15T10:06:26;8.52;;;6.35;;
49784;SDS011;35679;38.732;-121.358;2022-11-15T10:09:21;8.18;;;6.40;;
49784;SDS011;35679;38.732;-121.358;2022-11-15T10:12:37;7.78;;;6.80;;
49784;SDS011;35679;38.732;-121.358;2022-11-15T10:15:27;8.68;;;6.70;;
49784;SDS011;35679;38.732;-121.358;2022-11-15T10:21:24;9.25;;;6.50;;
49784;SDS011;35679;38.732;-121.358;2022-11-15T10:24:23;7.88;;;6.25;;
49784;SDS011;35679;38.732;-121.358;2022-11-15T10:27:18;7.38;;;6.47;;
49784;SDS011;35679;38.732;-121.358;2022-11-15T10:30:13;8.40;;;6.93;;
49784;SDS011;35679;38.732;-121.358;2022-11-15T10:36:26;8.30;;;6.10;;
49784;SDS011;35679;38.732;-121.358;2022-11-15T10:39:17;7.95;;;7.00;;
49784;SDS011;35679;38.732;-121.358;2022-11-15T10:42:16;7.95;;;6.60;;
49784;SDS011;35679;38.732;-121.358;2022-11-15T10:45:27;8.27;;;6.32;;
49784;SDS011;35679;38.732;-121.358;2022-11-15T10:51:18;8.82;;;6.80;;
49784;SDS011;35679;38.732;-121.358;2022-11-15T10:54:27;8.18;;;6.93;;
49784;SDS011;35679;38.732;-121.358;2022-11-15T10:57:22;7.70;;;6.57;;
49784;SDS011;35679;38.732;-121.358;2022-11-15T11:03:24;7.70;;;6.90;;
49784;SDS011;35679;38.732;-121.358;2022-11-15T11:06:24;7.22;;;6.53;;
49784;SDS011;35679;38.732;-121.358;2022-11-15T11:09:22;8.45;;;7.32;;
49784;SDS011;35679;38.732;-121.358;2022-11-15T11:12:12;8.85;;;6.97;;
49784;SDS011;35679;38.732;-121.358;2022-11-15T11:15:09;7.55;;;6.68;;
49784;SDS011;35679;38.732;-121.358;2022-11-15T11:18:06;9.23;;;7.25;;
49784;SDS011;35679;38.732;-121.358;2022-11-15T11:21:07;7.75;;;6.72;;
49784;SDS011;35679;38.732;-121.358;2022-11-15T11:24:07;9.57;;;6.53;;
49784;SDS011;35679;38.732;-121.358;2022-11-15T11:27:26;9.30;;;6.72;;
49784;SDS011;35679;38.732;-121.358;2022-11-15T11:36:36;7.90;;;7.03;;
49784;SDS011;35679;38.732;-121.358;2022-11-15T11:42:56;9.07;;;6.80;;
49784;SDS011;35679;38.732;-121.358;2022-11-15T11:55:36;8.45;;;6.75;;
49784;SDS011;35679;38.732;-121.358;2022-11-15T11:58:33;9.43;;;6.93;;
49784;SDS011;35679;38.732;-121.358;2022-11-15T12:01:30;7.53;;;6.78;;
49784;SDS011;35679;38.732;-121.358;2022-11-15T12:04:42;8.27;;;6.90;;
49784;SDS011;35679;38.732;-121.358;2022-11-15T12:07:37;7.50;;;6.28;;
49784;SDS011;35679;38.732;-121.358;2022-11-15T12:10:29;7.00;;;6.32;;
49784;SDS011;35679;38.732;-121.358;2022-11-15T12:13:24;7.63;;;6.80;;
49784;SDS011;35679;38.732;-121.358;2022-11-15T12:16:27;7.63;;;6.88;;
49784;SDS011;35679;38.732;-121.358;2022-11-15T12:19:19;8.20;;;7.38;;
49784;SDS011;35679;38.732;-121.358;2022-11-15T12:22:22;8.00;;;7.30;;
49784;SDS011;35679;38.732;-121.358;2022-11-15T12:28:16;7.68;;;6.80;;
49784;SDS011;35679;38.732;-121.358;2022-11-15T12:34:34;8.05;;;6.55;;
49784;SDS011;35679;38.732;-121.358;2022-11-15T12:40:31;7.78;;;6.97;;
49784;SDS011;35679;38.732;-121.358;2022-11-15T12:52:16;8.05;;;6.78;;
49784;SDS011;35679;38.732;-121.358;2022-11-15T12:55:28;7.45;;;6.32;;
49784;SDS011;35679;38.732;-121.358;2022-11-15T12:58:26;8.07;;;6.28;;
49784;SDS011;35679;38.732;-121.358;2022-11-15T13:04:26;7.90;;;6.63;;
49784;SDS011;35679;38.732;-121.358;2022-11-15T13:07:59;8.55;;;6.65;;
49784;SDS011;35679;38.732;-121.358;2022-11-15T13:10:31;6.85;;;6.10;;
49784;SDS011;35679;38.732;-121.358;2022-11-15T13:13:55;8.80;;;6.25;;
49784;SDS011;35679;38.732;-121.358;2022-11-15T13:16:37;7.03;;;6.18;;
49784;SDS011;35679;38.732;-121.358;2022-11-15T13:19:27;6.57;;;5.75;;
49784;SDS011;35679;38.732;-121.358;2022-11-15T13:22:18;7.57;;;6.05;;
49784;SDS011;35679;38.732;-121.358;2022-11-15T13:28:50;7.07;;;5.90;;
49784;SDS011;35679;38.732;-121.358;2022-11-15T13:31:43;8.70;;;5.82;;
49784;SDS011;35679;38.732;-121.358;2022-11-15T13:34:34;7.88;;;6.32;;
49784;SDS011;35679;38.732;-121.358;2022-11-15T13:37:41;7.07;;;6.00;;
49784;SDS011;35679;38.732;-121.358;2022-11-15T13:40:36;9.27;;;6.25;;
49784;SDS011;35679;38.732;-121.358;2022-11-15T13:43:27;7.60;;;5.95;;
49784;SDS011;35679;38.732;-121.358;2022-11-15T13:46:24;8.23;;;6.90;;
49784;SDS011;35679;38.732;-121.358;2022-11-15T13:49:28;7.47;;;6.45;;
49784;SDS011;35679;38.732;-121.358;2022-11-15T13:52:26;7.18;;;6.15;;
49784;SDS011;35679;38.732;-121.358;2022-11-15T13:55:21;8.45;;;6.50;;
49784;SDS011;35679;38.732;-121.358;2022-11-15T13:58:12;8.05;;;6.50;;
49784;SDS011;35679;38.732;-121.358;2022-11-15T14:01:11;6.88;;;6.18;;
49784;SDS011;35679;38.732;-121.358;2022-11-15T14:04:05;7.13;;;5.97;;
49784;SDS011;35679;38.732;-121.358;2022-11-15T14:06:58;7.88;;;6.32;;
49784;SDS011;35679;38.732;-121.358;2022-11-15T14:09:49;7.90;;;5.78;;
49784;SDS011;35679;38.732;-121.358;2022-11-15T14:12:38;10.25;;;6.80;;
49784;SDS011;35679;38.732;-121.358;2022-11-15T14:15:41;7.30;;;6.35;;
49784;SDS011;35679;38.732;-121.358;2022-11-15T14:18:44;6.88;;;6.15;;
49784;SDS011;35679;38.732;-121.358;2022-11-15T14:21:35;7.35;;;5.85;;
49784;SDS011;35679;38.732;-121.358;2022-11-15T14:24:29;8.75;;;6.28;;
49784;SDS011;35679;38.732;-121.358;2022-11-15T14:30:15;6.68;;;6.05;;
49784;SDS011;35679;38.732;-121.358;2022-11-15T14:33:38;7.53;;;6.45;;
49784;SDS011;35679;38.732;-121.358;2022-11-15T14:36:27;7.25;;;5.82;;
49784;SDS011;35679;38.732;-121.358;2022-11-15T14:39:17;7.93;;;5.97;;
49784;SDS011;35679;38.732;-121.358;2022-11-15T14:42:08;6.57;;;5.75;;
49784;SDS011;35679;38.732;-121.358;2022-11-15T14:44:58;8.05;;;6.32;;
49784;SDS011;35679;38.732;-121.358;2022-11-15T14:47:48;8.05;;;6.05;;
49784;SDS011;35679;38.732;-121.358;2022-11-15T14:50:37;8.73;;;6.25;;
49784;SDS011;35679;38.732;-121.358;2022-11-15T14:53:27;8.02;;;6.18;;
49784;SDS011;35679;38.732;-121.358;2022-11-15T14:56:16;6.47;;;5.53;;
49784;SDS011;35679;38.732;-121.358;2022-11-15T14:59:06;7.05;;;5.93;;
49784;SDS011;35679;38.732;-121.358;2022-11-15T15:01:55;6.70;;;5.55;;
49784;SDS011;35679;38.732;-121.358;2022-11-15T15:04:45;7.03;;;5.72;;
49784;SDS011;35679;38.732;-121.358;2022-11-15T15:07:35;6.18;;;5.57;;
49784;SDS011;35679;38.732;-121.358;2022-11-15T15:10:25;6.63;;;5.65;;
49784;SDS011;35679;38.732;-121.358;2022-11-15T15:13:26;6.03;;;5.43;;
49784;SDS011;35679;38.732;-121.358;2022-11-15T15:16:18;7.78;;;5.40;;
49784;SDS011;35679;38.732;-121.358;2022-11-15T15:19:08;6.20;;;5.60;;
49784;SDS011;35679;38.732;-121.358;2022-11-15T15:21:58;6.75;;;6.05;;
49784;SDS011;35679;38.732;-121.358;2022-11-15T15:24:47;7.35;;;5.63;;
49784;SDS011;35679;38.732;-121.358;2022-11-15T15:27:37;7.50;;;5.65;;
49784;SDS011;35679;38.732;-121.358;2022-11-15T15:30:28;6.65;;;5.93;;
49784;SDS011;35679;38.732;-121.358;2022-11-15T15:33:18;7.78;;;5.72;;
49784;SDS011;35679;38.732;-121.358;2022-11-15T15:36:11;6.28;;;5.65;;
49784;SDS011;35679;38.732;-121.358;2022-11-15T15:39:02;6.80;;;5.57;;
49784;SDS011;35679;38.732;-121.358;2022-11-15T15:41:52;7.40;;;5.45;;
49784;SDS011;35679;38.732;-121.358;2022-11-15T15:44:43;6.25;;;5.40;;
49784;SDS011;35679;38.732;-121.358;2022-11-15T15:47:33;6.93;;;5.38;;
49784;SDS011;35679;38.732;-121.358;2022-11-15T15:53:16;6.15;;;5.55;;
49784;SDS011;35679;38.732;-121.358;2022-11-15T15:56:05;5.97;;;5.40;;
49784;SDS011;35679;38.732;-121.358;2022-11-15T15:58:56;5.93;;;5.25;;
49784;SDS011;35679;38.732;-121.358;2022-11-15T16:01:46;7.22;;;6.00;;
49784;SDS011;35679;38.732;-121.358;2022-11-15T16:04:35;5.82;;;5.20;;
49784;SDS011;35679;38.732;-121.358;2022-11-15T16:07:25;6.18;;;5.57;;
49784;SDS011;35679;38.732;-121.358;2022-11-15T16:10:21;5.68;;;5.10;;
49784;SDS011;35679;38.732;-121.358;2022-11-15T16:13:13;5.78;;;5.18;;
49784;SDS011;35679;38.732;-121.358;2022-11-15T16:16:02;5.72;;;5.00;;
49784;SDS011;35679;38.732;-121.358;2022-11-15T16:18:56;6.15;;;5.07;;
49784;SDS011;35679;38.732;-121.358;2022-11-15T16:21:45;6.03;;;5.43;;
49784;SDS011;35679;38.732;-121.358;2022-11-15T16:24:35;8.38;;;5.47;;
49784;SDS011;35679;38.732;-121.358;2022-11-15T16:27:25;5.50;;;5.00;;
49784;SDS011;35679;38.732;-121.358;2022-11-15T16:30:15;8.15;;;5.35;;
49784;SDS011;35679;38.732;-121.358;2022-11-15T16:33:06;5.45;;;4.95;;
49784;SDS011;35679;38.732;-121.358;2022-11-15T16:35:56;6.72;;;4.97;;
49784;SDS011;35679;38.732;-121.358;2022-11-15T16:38:46;5.90;;;5.00;;
49784;SDS011;35679;38.732;-121.358;2022-11-15T16:41:35;5.90;;;5.07;;
49784;SDS011;35679;38.732;-121.358;2022-11-15T16:44:25;6.90;;;5.38;;
49784;SDS011;35679;38.732;-121.358;2022-11-15T16:47:19;5.53;;;5.03;;
49784;SDS011;35679;38.732;-121.358;2022-11-15T16:50:23;6.60;;;5.82;;
49784;SDS011;35679;38.732;-121.358;2022-11-15T16:53:15;5.28;;;4.82;;
49784;SDS011;35679;38.732;-121.358;2022-11-15T16:56:16;5.82;;;4.88;;
49784;SDS011;35679;38.732;-121.358;2022-11-15T16:59:16;5.20;;;4.70;;
49784;SDS011;35679;38.732;-121.358;2022-11-15T17:02:10;5.65;;;5.05;;
49784;SDS011;35679;38.732;-121.358;2022-11-15T17:05:00;5.57;;;5.07;;
49784;SDS011;35679;38.732;-121.358;2022-11-15T17:07:57;6.65;;;4.78;;
49784;SDS011;35679;38.732;-121.358;2022-11-15T17:10:47;5.60;;;4.68;;
49784;SDS011;35679;38.732;-121.358;2022-11-15T17:13:36;5.40;;;4.85;;
49784;SDS011;35679;38.732;-121.358;2022-11-15T17:16:26;5.00;;;4.57;;
49784;SDS011;35679;38.732;-121.358;2022-11-15T17:19:17;5.82;;;5.22;;
49784;SDS011;35679;38.732;-121.358;2022-11-15T17:22:08;7.43;;;5.00;;
49784;SDS011;35679;38.732;-121.358;2022-11-15T17:24:57;6.10;;;4.65;;
49784;SDS011;35679;38.732;-121.358;2022-11-15T17:27:47;5.05;;;4.55;;
49784;SDS011;35679;38.732;-121.358;2022-11-15T17:30:39;6.70;;;5.00;;
49784;SDS011;35679;38.732;-121.358;2022-11-15T17:33:30;6.30;;;4.57;;
49784;SDS011;35679;38.732;-121.358;2022-11-15T17:36:20;5.03;;;4.63;;
49784;SDS011;35679;38.732;-121.358;2022-11-15T17:39:10;5.28;;;4.72;;
49784;SDS011;35679;38.732;-121.358;2022-11-15T17:41:59;5.28;;;4.78;;
49784;SDS011;35679;38.732;-121.358;2022-11-15T17:44:49;5.38;;;4.88;;
49784;SDS011;35679;38.732;-121.358;2022-11-15T17:47:38;6.47;;;4.65;;
49784;SDS011;35679;38.732;-121.358;2022-11-15T17:50:28;5.80;;;4.93;;
49784;SDS011;35679;38.732;-121.358;2022-11-15T17:53:17;6.28;;;5.30;;
49784;SDS011;35679;38.732;-121.358;2022-11-15T17:56:08;5.63;;;5.07;;
49784;SDS011;35679;38.732;-121.358;2022-11-15T17:58:58;6.22;;;4.55;;
49784;SDS011;35679;38.732;-121.358;2022-11-15T18:01:48;5.00;;;4.47;;
49784;SDS011;35679;38.732;-121.358;2022-11-15T18:04:38;5.10;;;4.57;;
49784;SDS011;35679;38.732;-121.358;2022-11-15T18:07:28;5.13;;;4.65;;
49784;SDS011;35679;38.732;-121.358;2022-11-15T18:10:17;5.40;;;4.75;;
49784;SDS011;35679;38.732;-121.358;2022-11-15T18:13:07;5.18;;;4.50;;
49784;SDS011;35679;38.732;-121.358;2022-11-15T18:15:57;4.57;;;3.85;;
49784;SDS011;35679;38.732;-121.358;2022-11-15T18:18:50;5.45;;;4.97;;
49784;SDS011;35679;38.732;-121.358;2022-11-15T18:21:41;5.03;;;4.45;;
49784;SDS011;35679;38.732;-121.358;2022-11-15T18:24:43;5.47;;;4.97;;
49784;SDS011;35679;38.732;-121.358;2022-11-15T18:27:34;4.55;;;4.15;;
49784;SDS011;35679;38.732;-121.358;2022-11-15T18:30:23;5.03;;;4.40;;
49784;SDS011;35679;38.732;-121.358;2022-11-15T18:33:13;4.60;;;4.20;;
49784;SDS011;35679;38.732;-121.358;2022-11-15T18:36:04;5.00;;;4.60;;
49784;SDS011;35679;38.732;-121.358;2022-11-15T18:38:59;4.93;;;4.53;;
49784;SDS011;35679;38.732;-121.358;2022-11-15T18:41:52;5.38;;;4.78;;
49784;SDS011;35679;38.732;-121.358;2022-11-15T18:44:42;5.00;;;4.50;;
49784;SDS011;35679;38.732;-121.358;2022-11-15T18:47:31;4.95;;;4.50;;
49784;SDS011;35679;38.732;-121.358;2022-11-15T18:50:21;5.18;;;4.78;;
49784;SDS011;35679;38.732;-121.358;2022-11-15T18:53:10;6.15;;;4.53;;
49784;SDS011;35679;38.732;-121.358;2022-11-15T18:56:04;5.53;;;4.15;;
49784;SDS011;35679;38.732;-121.358;2022-11-15T18:58:56;4.90;;;4.50;;
49784;SDS011;35679;38.732;-121.358;2022-11-15T19:01:47;4.50;;;4.10;;
49784;SDS011;35679;38.732;-121.358;2022-11-15T19:04:37;5.18;;;4.70;;
49784;SDS011;35679;38.732;-121.358;2022-11-15T19:07:26;5.60;;;5.10;;
49784;SDS011;35679;38.732;-121.358;2022-11-15T19:10:16;4.28;;;3.97;;